Time;durP1;ratioP1;P1;durP2;ratioP2;P2;SDS_P1;SDS_P2;PMS_P1;PMS_P2;Temp;Humidity;BMP_temperature;BMP_pressure;BME280_temperature;BME280_humidity;BME280_pressure;Samples;Min_cycle;Max_cycle;Signal;HPM_P1;HPM_P2
2022/05/20 00:00:17;;;;;;;8.35;4.85;;;;;;;;;;5061217;28;20569;-85
2022/05/20 00:02:43;;;;;;;6.57;4.28;;;;;;;;;;5034342;28;20041;-83
2022/05/20 00:05:09;;;;;;;6.65;4.28;;;;;;;;;;5062339;28;20593;-82
2022/05/20 00:07:35;;;;;;;4.75;4.13;;;;;;;;;;5061569;28;20547;-81
2022/05/20 00:10:01;;;;;;;6.72;4.57;;;;;;;;;;5061543;28;20052;-83
2022/05/20 00:12:28;;;;;;;7.18;5.03;;;;;;;;;;5053916;28;20048;-81
2022/05/20 00:14:54;;;;;;;5.72;4.63;;;;;;;;;;5053653;28;20040;-80
2022/05/20 00:17:21;;;;;;;6.78;4.03;;;;;;;;;;5043460;28;20032;-87
2022/05/20 00:19:47;;;;;;;7.28;4.60;;;;;;;;;;5052441;28;20127;-84
2022/05/20 00:22:13;;;;;;;7.30;4.72;;;;;;;;;;5035871;28;20568;-82
2022/05/20 00:25:45;;;;;;;6.20;4.82;;;;;;;;;;5035005;28;20502;-81
2022/05/20 00:27:28;;;;;;;7.20;5.10;;;;;;;;;;5049385;28;20548;-80
2022/05/20 00:29:54;;;;;;;8.05;4.60;;;;;;;;;;5058686;28;20038;-82
2022/05/20 00:32:20;;;;;;;4.90;4.40;;;;;;;;;;5059824;28;20024;-81
2022/05/20 00:34:46;;;;;;;7.93;5.18;;;;;;;;;;5051536;28;20403;-82
2022/05/20 00:37:12;;;;;;;7.28;4.90;;;;;;;;;;5060850;28;20042;-83
2022/05/20 00:39:40;;;;;;;6.93;4.50;;;;;;;;;;5061291;28;20039;-86
2022/05/20 00:42:10;;;;;;;6.50;4.25;;;;;;;;;;5061357;28;20435;-80
2022/05/20 00:44:36;;;;;;;6.00;4.32;;;;;;;;;;5056207;28;20449;-80
2022/05/20 00:47:04;;;;;;;5.07;4.45;;;;;;;;;;5060946;28;20051;-84
2022/05/20 00:49:30;;;;;;;5.72;4.72;;;;;;;;;;5024477;28;20614;-81
2022/05/20 00:51:57;;;;;;;6.65;4.60;;;;;;;;;;5026604;28;20033;-84
2022/05/20 00:54:28;;;;;;;6.03;5.03;;;;;;;;;;5034348;28;20589;-82
2022/05/20 00:57:06;;;;;;;8.18;4.82;;;;;;;;;;5055034;28;20036;-80
2022/05/20 00:59:34;;;;;;;5.68;4.28;;;;;;;;;;5048987;28;20099;-83
2022/05/20 01:02:03;;;;;;;10.07;5.22;;;;;;;;;;5051667;28;20551;-80
2022/05/20 01:04:29;;;;;;;6.18;4.63;;;;;;;;;;5059678;28;20040;-82
2022/05/20 01:06:55;;;;;;;7.22;4.70;;;;;;;;;;5051340;28;20380;-87
2022/05/20 01:09:21;;;;;;;5.60;3.78;;;;;;;;;;5024504;28;20048;-84
2022/05/20 01:11:48;;;;;;;8.73;4.80;;;;;;;;;;5036459;28;20090;-83
2022/05/20 01:14:19;;;;;;;7.93;4.60;;;;;;;;;;5063135;28;20067;-84
2022/05/20 01:16:45;;;;;;;6.88;5.07;;;;;;;;;;5060293;28;20044;-84
2022/05/20 01:19:15;;;;;;;8.15;4.60;;;;;;;;;;5063550;28;20479;-83
2022/05/20 01:21:41;;;;;;;6.05;4.63;;;;;;;;;;5063086;28;20457;-82
2022/05/20 01:24:07;;;;;;;8.07;4.80;;;;;;;;;;5037564;28;20131;-83
2022/05/20 01:26:33;;;;;;;6.00;5.07;;;;;;;;;;5036033;28;20488;-83
2022/05/20 01:28:59;;;;;;;7.60;5.07;;;;;;;;;;5062834;28;20036;-83
2022/05/20 01:31:25;;;;;;;7.80;4.82;;;;;;;;;;5037440;28;20098;-83
2022/05/20 01:33:52;;;;;;;7.05;4.82;;;;;;;;;;5034718;28;20044;-82
2022/05/20 01:36:19;;;;;;;6.30;4.28;;;;;;;;;;5064396;28;20032;-85
2022/05/20 01:38:45;;;;;;;6.18;4.78;;;;;;;;;;5062871;28;20498;-87
2022/05/20 01:41:18;;;;;;;7.45;4.72;;;;;;;;;;5028759;28;20506;-84
2022/05/20 01:44:03;;;;;;;6.28;5.28;;;;;;;;;;5036529;28;20044;-83
2022/05/20 01:46:41;;;;;;;8.63;5.55;;;;;;;;;;5061821;28;20044;-84
2022/05/20 01:49:07;;;;;;;9.93;5.30;;;;;;;;;;5036888;28;20201;-87
2022/05/20 01:51:38;;;;;;;8.75;5.35;;;;;;;;;;5062648;28;20505;-86
2022/05/20 01:54:08;;;;;;;8.07;5.93;;;;;;;;;;5059849;28;20044;-86
2022/05/20 01:56:39;;;;;;;7.55;5.05;;;;;;;;;;5044926;28;20048;-86
2022/05/20 01:59:10;;;;;;;8.55;5.32;;;;;;;;;;5028415;28;20477;-86
2022/05/20 02:01:48;;;;;;;10.60;5.32;;;;;;;;;;5060419;28;20032;-86
2022/05/20 02:04:19;;;;;;;8.02;5.95;;;;;;;;;;5051987;28;20470;-86
2022/05/20 02:06:50;;;;;;;7.40;5.20;;;;;;;;;;5061520;28;20036;-86
2022/05/20 02:09:19;;;;;;;9.73;6.05;;;;;;;;;;5035001;28;20060;-87
2022/05/20 02:11:47;;;;;;;6.22;5.25;;;;;;;;;;5061326;28;20044;-85
2022/05/20 02:14:17;;;;;;;8.68;6.28;;;;;;;;;;5051199;28;20028;-86
2022/05/20 02:16:45;;;;;;;6.93;5.15;;;;;;;;;;5053590;28;20066;-86
2022/05/20 02:19:19;;;;;;;8.60;5.35;;;;;;;;;;5051236;28;20047;-84
2022/05/20 02:21:48;;;;;;;7.13;5.50;;;;;;;;;;5061840;28;20044;-88
2022/05/20 02:24:15;;;;;;;14.68;6.13;;;;;;;;;;5051523;28;20037;-88
2022/05/20 02:26:44;;;;;;;11.02;6.38;;;;;;;;;;5062583;28;20032;-90
2022/05/20 02:29:13;;;;;;;7.88;5.70;;;;;;;;;;5026281;28;20389;-88
2022/05/20 02:31:58;;;;;;;9.30;6.13;;;;;;;;;;5027517;28;20075;-88
2022/05/20 02:34:24;;;;;;;10.13;5.80;;;;;;;;;;5021294;28;20085;-89
2022/05/20 02:36:50;;;;;;;8.55;5.95;;;;;;;;;;5026121;28;20035;-89
2022/05/20 02:39:16;;;;;;;8.07;5.28;;;;;;;;;;5051580;28;20396;-89
2022/05/20 02:41:46;;;;;;;7.85;5.38;;;;;;;;;;5060242;28;20086;-93
2022/05/20 02:44:12;;;;;;;8.15;5.68;;;;;;;;;;5037586;28;20032;-90
2022/05/20 02:46:42;;;;;;;9.35;5.57;;;;;;;;;;5060948;28;20489;-90
2022/05/20 02:49:08;;;;;;;6.93;5.57;;;;;;;;;;5036918;28;20064;-89
2022/05/20 02:51:34;;;;;;;12.10;5.55;;;;;;;;;;5062645;28;20097;-90
2022/05/20 02:54:00;;;;;;;7.45;5.93;;;;;;;;;;5062358;28;20090;-89
2022/05/20 02:56:26;;;;;;;8.75;6.07;;;;;;;;;;5054227;28;20037;-88
2022/05/20 03:04:22;;;;;;;7.28;5.60;;;;;;;;;;5050752;28;20388;-90
2022/05/20 03:06:52;;;;;;;8.45;5.78;;;;;;;;;;5061415;28;20303;-89
2022/05/20 03:09:19;;;;;;;7.95;6.30;;;;;;;;;;5070439;28;20048;-96
2022/05/20 03:11:45;;;;;;;8.07;5.78;;;;;;;;;;5068289;28;20407;-93
2022/05/20 03:14:13;;;;;;;9.38;5.88;;;;;;;;;;5034631;28;20029;-91
2022/05/20 03:16:39;;;;;;;8.55;5.97;;;;;;;;;;5062168;28;20036;-89
2022/05/20 03:19:06;;;;;;;10.60;6.35;;;;;;;;;;5058725;28;20044;-87
2022/05/20 03:21:32;;;;;;;7.18;5.53;;;;;;;;;;5033430;28;20040;-84
2022/05/20 03:24:01;;;;;;;8.95;5.82;;;;;;;;;;5062210;28;20043;-86
2022/05/20 03:26:28;;;;;;;7.85;5.63;;;;;;;;;;5061694;28;20036;-93
2022/05/20 03:28:54;;;;;;;10.45;6.18;;;;;;;;;;5061582;28;20127;-91
2022/05/20 03:31:20;;;;;;;10.02;6.28;;;;;;;;;;5057740;28;20122;-92
2022/05/20 03:33:46;;;;;;;8.57;6.68;;;;;;;;;;5033638;28;20503;-92
2022/05/20 03:36:14;;;;;;;6.57;5.78;;;;;;;;;;5034516;28;20123;-92
2022/05/20 03:38:40;;;;;;;12.48;5.82;;;;;;;;;;5039669;28;20041;-93
2022/05/20 03:41:06;;;;;;;8.18;6.50;;;;;;;;;;5047495;28;20067;-94
2022/05/20 03:43:33;;;;;;;10.63;6.78;;;;;;;;;;5038779;28;20101;-92
2022/05/20 03:45:59;;;;;;;10.55;5.80;;;;;;;;;;5053480;28;20044;-89
2022/05/20 03:48:26;;;;;;;10.77;6.03;;;;;;;;;;5061606;28;20475;-90
2022/05/20 03:50:52;;;;;;;8.40;6.07;;;;;;;;;;5033801;28;20075;-92
2022/05/20 03:53:18;;;;;;;9.07;6.05;;;;;;;;;;5036761;28;20036;-90
2022/05/20 03:55:44;;;;;;;10.07;6.32;;;;;;;;;;5061746;28;20052;-89
2022/05/20 03:58:10;;;;;;;8.23;5.63;;;;;;;;;;5036060;28;20059;-87
2022/05/20 04:01:56;;;;;;;8.93;6.03;;;;;;;;;;5060949;28;20119;-88
2022/05/20 04:03:22;;;;;;;11.07;6.65;;;;;;;;;;5051244;28;20407;-91
2022/05/20 04:05:48;;;;;;;13.57;6.68;;;;;;;;;;5061090;28;20083;-89
2022/05/20 04:08:15;;;;;;;10.48;7.88;;;;;;;;;;5061637;28;20522;-89
2022/05/20 04:10:42;;;;;;;9.52;7.13;;;;;;;;;;5061786;28;20064;-89
2022/05/20 04:13:08;;;;;;;11.18;6.80;;;;;;;;;;5036075;28;20032;-89
2022/05/20 04:15:34;;;;;;;11.40;8.13;;;;;;;;;;5062730;28;20070;-90
2022/05/20 04:18:00;;;;;;;13.30;7.85;;;;;;;;;;5035748;28;20055;-89
2022/05/20 04:20:26;;;;;;;14.85;8.98;;;;;;;;;;5062379;28;20392;-90
2022/05/20 04:22:52;;;;;;;10.82;7.85;;;;;;;;;;5030743;28;20048;-90
2022/05/20 04:25:18;;;;;;;12.15;8.20;;;;;;;;;;5070077;28;20047;-91
2022/05/20 04:27:44;;;;;;;15.85;9.73;;;;;;;;;;5038173;28;20480;-88
2022/05/20 04:30:12;;;;;;;15.98;8.13;;;;;;;;;;5057466;28;20040;-87
2022/05/20 04:32:38;;;;;;;13.35;9.07;;;;;;;;;;5035651;28;20040;-85
2022/05/20 04:35:04;;;;;;;14.77;8.82;;;;;;;;;;5045771;28;20036;-90
2022/05/20 04:37:30;;;;;;;15.35;9.52;;;;;;;;;;5042859;28;20380;-86
2022/05/20 04:39:56;;;;;;;14.18;9.32;;;;;;;;;;5065457;28;20043;-87
2022/05/20 04:47:52;;;;;;;13.68;9.40;;;;;;;;;;5057502;28;20100;-87
2022/05/20 04:50:18;;;;;;;14.73;9.40;;;;;;;;;;5038320;28;20441;-88
2022/05/20 04:52:44;;;;;;;14.30;9.65;;;;;;;;;;5066194;28;20124;-88
2022/05/20 04:55:10;;;;;;;17.83;9.02;;;;;;;;;;5040539;28;20044;-89
2022/05/20 04:57:47;;;;;;;14.48;9.35;;;;;;;;;;5037996;28;20033;-90
2022/05/20 05:00:14;;;;;;;13.13;9.30;;;;;;;;;;5036820;28;20032;-88
2022/05/20 05:02:41;;;;;;;15.18;8.65;;;;;;;;;;5064386;28;20052;-88
2022/05/20 05:05:09;;;;;;;11.48;8.27;;;;;;;;;;5064179;28;20044;-88
2022/05/20 05:07:39;;;;;;;15.88;9.27;;;;;;;;;;5064163;28;20492;-89
2022/05/20 05:10:05;;;;;;;14.80;8.55;;;;;;;;;;5018426;28;20394;-90
2022/05/20 05:12:32;;;;;;;13.73;7.90;;;;;;;;;;5043830;28;20067;-90
2022/05/20 05:14:58;;;;;;;12.77;8.45;;;;;;;;;;5041836;28;20411;-87
2022/05/20 05:20:17;;;;;;;14.68;7.95;;;;;;;;;;5021567;28;20466;-89
2022/05/20 05:22:43;;;;;;;11.20;7.85;;;;;;;;;;5036730;28;20420;-89
2022/05/20 05:25:10;;;;;;;14.57;8.48;;;;;;;;;;5036916;28;20048;-86
2022/05/20 05:27:36;;;;;;;13.85;9.00;;;;;;;;;;5037427;28;20045;-89
2022/05/20 05:30:03;;;;;;;13.38;8.23;;;;;;;;;;5037399;28;20080;-86
2022/05/20 05:32:29;;;;;;;13.27;8.50;;;;;;;;;;5037312;28;20029;-88
2022/05/20 05:34:55;;;;;;;18.02;10.10;;;;;;;;;;5037479;28;20084;-85
2022/05/20 05:37:21;;;;;;;13.85;8.98;;;;;;;;;;5020787;28;20495;-87
2022/05/20 05:39:47;;;;;;;14.10;9.70;;;;;;;;;;5035138;28;20396;-87
2022/05/20 05:42:13;;;;;;;18.17;9.48;;;;;;;;;;5019410;28;20348;-85
2022/05/20 05:44:39;;;;;;;13.80;9.27;;;;;;;;;;5019263;28;20062;-86
2022/05/20 05:47:05;;;;;;;17.00;9.75;;;;;;;;;;5018443;28;20124;-87
2022/05/20 05:49:31;;;;;;;15.77;8.52;;;;;;;;;;5019678;28;20064;-86
2022/05/20 05:51:57;;;;;;;13.35;8.48;;;;;;;;;;5019376;28;20072;-89
2022/05/20 05:54:23;;;;;;;14.18;9.00;;;;;;;;;;5018798;28;20497;-85
2022/05/20 05:56:50;;;;;;;10.68;7.65;;;;;;;;;;5020923;28;20044;-87
2022/05/20 05:59:16;;;;;;;9.68;7.85;;;;;;;;;;5020787;28;20044;-89
2022/05/20 06:01:42;;;;;;;13.48;8.40;;;;;;;;;;5037413;28;20443;-86
2022/05/20 06:04:08;;;;;;;13.07;8.02;;;;;;;;;;5020695;28;20052;-87
2022/05/20 06:06:34;;;;;;;11.60;9.27;;;;;;;;;;5019928;28;20040;-87
2022/05/20 06:09:00;;;;;;;14.13;11.20;;;;;;;;;;5018594;28;20060;-92
2022/05/20 06:11:26;;;;;;;11.48;7.88;;;;;;;;;;5019468;28;20040;-87
2022/05/20 06:13:52;;;;;;;10.75;9.65;;;;;;;;;;5018780;28;20089;-85
2022/05/20 06:16:21;;;;;;;11.52;9.85;;;;;;;;;;5020153;28;20064;-88
2022/05/20 06:18:48;;;;;;;12.07;9.68;;;;;;;;;;5019952;28;20052;-83
2022/05/20 06:21:14;;;;;;;10.25;8.82;;;;;;;;;;5019775;28;20139;-84
2022/05/20 06:23:40;;;;;;;11.85;8.88;;;;;;;;;;5018522;28;20127;-87
2022/05/20 06:26:07;;;;;;;11.35;9.32;;;;;;;;;;5018288;28;20041;-85
2022/05/20 06:28:33;;;;;;;10.75;9.15;;;;;;;;;;5018061;28;20052;-87
2022/05/20 06:30:59;;;;;;;10.77;9.65;;;;;;;;;;5018471;28;20045;-89
2022/05/20 06:33:25;;;;;;;9.77;8.75;;;;;;;;;;5035280;28;20481;-85
2022/05/20 06:41:20;;;;;;;14.13;8.73;;;;;;;;;;5035987;28;20471;-87
2022/05/20 06:43:46;;;;;;;8.63;7.60;;;;;;;;;;5019514;28;20044;-87
2022/05/20 06:46:12;;;;;;;9.35;6.97;;;;;;;;;;5019636;28;20167;-87
2022/05/20 06:48:49;;;;;;;10.68;8.38;;;;;;;;;;5016756;28;20052;-88
2022/05/20 06:51:17;;;;;;;12.70;7.60;;;;;;;;;;5014750;28;20481;-87
2022/05/20 06:53:43;;;;;;;8.40;7.07;;;;;;;;;;5014532;28;20048;-86
2022/05/20 06:56:10;;;;;;;8.95;7.60;;;;;;;;;;5015429;28;20045;-89
2022/05/20 06:58:36;;;;;;;7.63;6.82;;;;;;;;;;5014011;28;20045;-88
2022/05/20 07:01:03;;;;;;;10.98;7.20;;;;;;;;;;5014678;28;20065;-89
2022/05/20 07:03:57;;;;;;;8.93;7.28;;;;;;;;;;5014982;28;20151;-90
2022/05/20 07:06:30;;;;;;;9.98;7.95;;;;;;;;;;5038745;28;20057;-88
2022/05/20 07:08:56;;;;;;;9.38;5.95;;;;;;;;;;5023404;28;20045;-85
2022/05/20 07:11:24;;;;;;;8.98;7.10;;;;;;;;;;5059943;28;20044;-87
2022/05/20 07:13:52;;;;;;;9.07;7.10;;;;;;;;;;5033598;28;20079;-85
2022/05/20 07:16:20;;;;;;;8.52;6.20;;;;;;;;;;5033298;28;20047;-88
2022/05/20 07:18:49;;;;;;;8.77;5.85;;;;;;;;;;5047613;28;20119;-87
2022/05/20 07:21:15;;;;;;;10.38;6.93;;;;;;;;;;5050114;28;20531;-90
2022/05/20 07:23:41;;;;;;;8.43;6.32;;;;;;;;;;5058301;28;20047;-87
2022/05/20 07:26:07;;;;;;;7.75;6.60;;;;;;;;;;5058082;28;20040;-87
2022/05/20 07:28:35;;;;;;;9.90;6.70;;;;;;;;;;5050178;28;20076;-91
2022/05/20 07:31:01;;;;;;;8.10;6.82;;;;;;;;;;5057861;28;20039;-86
2022/05/20 07:33:32;;;;;;;8.57;6.75;;;;;;;;;;5033342;28;20416;-86
2022/05/20 07:36:00;;;;;;;8.77;6.95;;;;;;;;;;5031989;28;20041;-86
2022/05/20 07:38:27;;;;;;;7.47;6.75;;;;;;;;;;5031219;28;20047;-84
2022/05/20 07:40:56;;;;;;;10.98;7.57;;;;;;;;;;5031996;28;20094;-86
2022/05/20 07:43:24;;;;;;;10.77;6.95;;;;;;;;;;5017248;28;20048;-84
2022/05/20 07:45:50;;;;;;;8.13;6.80;;;;;;;;;;5031702;28;20067;-88
2022/05/20 07:48:17;;;;;;;6.75;4.70;;;;;;;;;;5056862;28;20122;-84
2022/05/20 07:50:47;;;;;;;10.02;6.05;;;;;;;;;;5058852;28;20032;-89
2022/05/20 07:53:33;;;;;;;;;;;;;;;;;;5034135;28;20041;-90
2022/05/20 07:56:14;;;;;;;7.72;5.70;;;;;;;;;;5032874;28;19920;-85
2022/05/20 07:58:58;;;;;;;8.07;4.45;;;;;;;;;;5049891;28;20512;-87
2022/05/20 08:01:29;;;;;;;10.35;5.55;;;;;;;;;;5061127;28;20059;-85
2022/05/20 08:06:43;;;;;;;5.80;5.03;;;;;;;;;;5049453;28;20519;-89
2022/05/20 08:09:09;;;;;;;5.60;4.70;;;;;;;;;;5060974;28;20593;-86
2022/05/20 08:11:36;;;;;;;7.20;4.80;;;;;;;;;;5063077;28;20028;-91
2022/05/20 08:14:03;;;;;;;5.80;4.78;;;;;;;;;;5037737;28;20503;-87
2022/05/20 08:16:29;;;;;;;7.03;5.30;;;;;;;;;;5036133;28;20056;-89
2022/05/20 08:18:55;;;;;;;6.32;4.38;;;;;;;;;;5065749;28;20033;-86
2022/05/20 08:21:24;;;;;;;8.27;4.30;;;;;;;;;;5039795;28;20048;-85
2022/05/20 08:23:49;;;;;;;6.80;4.32;;;;;;;;;;5038553;28;20036;-88
2022/05/20 08:26:18;;;;;;;5.25;3.80;;;;;;;;;;5065612;28;20047;-88
2022/05/20 08:28:44;;;;;;;6.57;4.40;;;;;;;;;;5040796;28;20051;-87
2022/05/20 08:31:11;;;;;;;6.50;4.80;;;;;;;;;;5057064;28;20028;-89
2022/05/20 08:33:37;;;;;;;5.60;4.65;;;;;;;;;;5064805;28;20547;-83
2022/05/20 08:36:04;;;;;;;6.22;4.50;;;;;;;;;;5039810;28;20520;-85
2022/05/20 08:38:30;;;;;;;8.80;4.85;;;;;;;;;;5040930;28;20098;-90
2022/05/20 08:40:57;;;;;;;7.80;4.90;;;;;;;;;;5058698;28;20036;-87
2022/05/20 08:43:26;;;;;;;7.45;4.72;;;;;;;;;;5058010;28;20044;-87
2022/05/20 08:45:52;;;;;;;7.22;5.05;;;;;;;;;;5057791;28;20037;-84
2022/05/20 08:48:18;;;;;;;8.50;4.93;;;;;;;;;;5057759;28;20572;-86
2022/05/20 08:50:46;;;;;;;7.72;5.32;;;;;;;;;;5040637;28;20067;-85
2022/05/20 08:53:14;;;;;;;10.13;5.30;;;;;;;;;;5041200;28;20048;-85
2022/05/20 08:55:41;;;;;;;8.80;4.72;;;;;;;;;;5037470;28;20064;-85
2022/05/20 08:58:10;;;;;;;7.53;4.45;;;;;;;;;;5037746;28;20090;-86
2022/05/20 09:00:36;;;;;;;10.13;5.63;;;;;;;;;;5039690;28;20399;-84
2022/05/20 09:03:06;;;;;;;10.32;5.13;;;;;;;;;;5040975;28;20040;-85
2022/05/20 09:05:33;;;;;;;8.15;5.88;;;;;;;;;;5057585;28;20052;-86
2022/05/20 09:08:04;;;;;;;6.70;5.43;;;;;;;;;;5057308;28;20094;-88
2022/05/20 09:10:30;;;;;;;6.38;5.72;;;;;;;;;;5038714;28;20037;-87
2022/05/20 09:15:43;;;;;;;5.63;5.13;;;;;;;;;;5043313;28;20119;-84
2022/05/20 09:16:19;;;;;;;8.55;5.18;;;;;;;;;;5062442;28;20412;-86
2022/05/20 09:18:45;;;;;;;;;;;;;;;;;;5075062;28;20055;-85
2022/05/20 09:21:28;;;;;;;7.80;4.82;;;;;;;;;;5038571;28;19923;-85
2022/05/20 09:23:56;;;;;;;6.28;5.15;;;;;;;;;;5037405;28;20048;-83
2022/05/20 09:26:30;;;;;;;8.35;5.32;;;;;;;;;;5056391;28;20036;-85
2022/05/20 09:29:06;;;;;;;6.13;4.45;;;;;;;;;;5060539;28;20028;-86
2022/05/20 09:31:35;;;;;;;9.90;6.43;;;;;;;;;;5060655;28;20044;-89
2022/05/20 09:34:17;;;;;;;6.97;5.68;;;;;;;;;;5060646;28;20126;-86
2022/05/20 09:36:48;;;;;;;10.90;6.25;;;;;;;;;;5041553;28;20044;-87
2022/05/20 09:39:19;;;;;;;6.25;5.18;;;;;;;;;;5039072;28;20032;-87
2022/05/20 09:41:46;;;;;;;6.10;5.38;;;;;;;;;;5035749;28;20040;-84
2022/05/20 09:44:13;;;;;;;6.70;5.22;;;;;;;;;;5035917;28;20052;-84
2022/05/20 09:46:41;;;;;;;6.85;6.25;;;;;;;;;;5020574;28;20036;-84
2022/05/20 09:49:13;;;;;;;6.35;5.80;;;;;;;;;;5020133;28;20060;-85
2022/05/20 09:51:42;;;;;;;6.35;5.22;;;;;;;;;;5020186;28;20099;-86
2022/05/20 09:54:11;;;;;;;6.75;4.53;;;;;;;;;;5036681;28;20037;-86
2022/05/20 09:56:40;;;;;;;8.57;5.50;;;;;;;;;;5020197;28;20041;-84
2022/05/20 09:59:16;;;;;;;5.88;4.40;;;;;;;;;;5012622;28;20044;-86
2022/05/20 10:01:47;;;;;;;4.68;4.05;;;;;;;;;;5020032;28;20045;-84
2022/05/20 10:04:18;;;;;;;8.07;6.38;;;;;;;;;;5053397;28;20055;-86
2022/05/20 10:06:43;;;;;;;;;;;;;;;;;;5019494;28;20045;-85
2022/05/20 10:09:33;;;;;;;5.43;4.53;;;;;;;;;;5018199;28;19921;-85
2022/05/20 10:12:06;;;;;;;7.78;5.93;;;;;;;;;;5018602;28;20500;-88
2022/05/20 10:14:56;;;;;;;7.30;6.32;;;;;;;;;;5018683;28;20106;-83
2022/05/20 10:17:41;;;;;;;5.30;4.65;;;;;;;;;;5010931;28;20067;-84
2022/05/20 10:20:08;;;;;;;9.20;6.03;;;;;;;;;;5018438;28;20044;-85
2022/05/20 10:22:34;;;;;;;8.45;5.70;;;;;;;;;;5018445;28;20048;-83
2022/05/20 10:25:06;;;;;;;7.25;6.53;;;;;;;;;;5018129;28;20397;-85
2022/05/20 10:27:41;;;;;;;8.48;6.35;;;;;;;;;;5018499;28;20066;-84
2022/05/20 10:33:09;;;;;;;8.23;7.05;;;;;;;;;;5034225;28;20041;-87
2022/05/20 10:35:43;;;;;;;8.55;7.65;;;;;;;;;;5018322;28;20068;-85
2022/05/20 10:38:12;;;;;;;8.30;6.75;;;;;;;;;;5010721;28;20043;-86
2022/05/20 10:40:56;;;;;;;7.50;6.70;;;;;;;;;;5034578;28;20130;-84
2022/05/20 10:49:38;;;;;;;7.07;6.38;;;;;;;;;;5031241;28;20045;-85
2022/05/20 10:52:11;;;;;;;9.77;5.25;;;;;;;;;;5014580;28;20098;-84
2022/05/20 10:54:59;;;;;;;6.72;5.90;;;;;;;;;;5014074;28;20385;-88
2022/05/20 10:57:28;;;;;;;7.60;6.60;;;;;;;;;;5015064;28;20428;-86
2022/05/20 10:59:54;;;;;;;9.40;5.97;;;;;;;;;;5014733;28;20045;-89
2022/05/20 11:02:39;;;;;;;7.00;6.28;;;;;;;;;;5031182;28;20080;-84
2022/05/20 11:05:05;;;;;;;4.40;4.00;;;;;;;;;;5013382;28;20504;-85
2022/05/20 11:07:35;;;;;;;7.30;6.60;;;;;;;;;;5014169;28;20071;-84
2022/05/20 11:10:16;;;;;;;5.80;4.38;;;;;;;;;;5026933;28;20052;-83
2022/05/20 11:12:42;;;;;;;6.70;5.97;;;;;;;;;;5058514;28;20495;-85
2022/05/20 11:15:27;;;;;;;7.10;5.57;;;;;;;;;;5058355;28;20040;-84
2022/05/20 11:18:11;;;;;;;4.80;4.13;;;;;;;;;;5058503;28;20399;-87
2022/05/20 11:20:58;;;;;;;5.28;3.63;;;;;;;;;;5058665;28;20506;-86
2022/05/20 11:23:42;;;;;;;5.38;4.88;;;;;;;;;;5058976;28;20379;-84
2022/05/20 11:26:11;;;;;;;4.70;4.28;;;;;;;;;;5053949;28;20132;-88
2022/05/20 11:28:44;;;;;;;6.88;5.20;;;;;;;;;;5054611;28;20534;-85
2022/05/20 11:31:13;;;;;;;5.75;5.10;;;;;;;;;;5056646;28;20047;-84
2022/05/20 11:33:58;;;;;;;6.40;4.35;;;;;;;;;;5056813;28;20484;-84
2022/05/20 11:36:37;;;;;;;5.70;5.20;;;;;;;;;;5072041;28;20087;-85
2022/05/20 11:39:15;;;;;;;5.38;3.90;;;;;;;;;;5054001;28;20078;-83
2022/05/20 11:41:55;;;;;;;4.82;3.83;;;;;;;;;;5053417;28;20089;-88
2022/05/20 11:44:26;;;;;;;4.47;4.07;;;;;;;;;;5054794;28;20041;-84
2022/05/20 11:46:52;;;;;;;5.32;4.38;;;;;;;;;;5042363;28;20079;-85
2022/05/20 11:49:18;;;;;;;5.30;4.60;;;;;;;;;;5042252;28;20084;-88
2022/05/20 11:51:51;;;;;;;5.32;4.90;;;;;;;;;;5042296;28;20423;-88
2022/05/20 11:54:35;;;;;;;4.75;4.35;;;;;;;;;;5037359;28;20036;-85
2022/05/20 11:57:04;;;;;;;6.15;5.45;;;;;;;;;;5040028;28;20119;-83
2022/05/20 11:59:45;;;;;;;6.53;5.70;;;;;;;;;;5042334;28;20137;-87
2022/05/20 12:02:14;;;;;;;6.53;5.93;;;;;;;;;;5057858;28;20434;-85
2022/05/20 12:04:41;;;;;;;14.98;10.98;;;;;;;;;;5056553;28;20051;-85
2022/05/20 12:07:12;;;;;;;12.65;8.57;;;;;;;;;;5058324;28;20634;-84
2022/05/20 12:09:40;;;;;;;9.93;8.30;;;;;;;;;;5058203;28;20104;-85
2022/05/20 12:12:15;;;;;;;10.88;7.65;;;;;;;;;;5051642;28;20040;-85
2022/05/20 12:15:00;;;;;;;7.43;6.78;;;;;;;;;;5045409;28;20391;-88
2022/05/20 12:17:29;;;;;;;7.07;6.00;;;;;;;;;;5062625;28;20054;-86
2022/05/20 12:26:15;;;;;;;6.78;4.68;;;;;;;;;;5051050;28;20047;-85
2022/05/20 12:28:41;;;;;;;4.05;3.30;;;;;;;;;;5042282;28;20044;-87
2022/05/20 12:31:07;;;;;;;3.97;3.67;;;;;;;;;;5043509;28;20037;-85
2022/05/20 12:33:51;;;;;;;4.95;4.50;;;;;;;;;;5044238;28;20137;-85
2022/05/20 12:36:22;;;;;;;7.50;4.68;;;;;;;;;;5077910;28;20369;-83
2022/05/20 12:38:48;;;;;;;4.78;4.28;;;;;;;;;;5077508;28;20052;-85
2022/05/20 12:41:20;;;;;;;6.50;5.90;;;;;;;;;;5059540;28;20040;-88
2022/05/20 12:43:55;;;;;;;7.80;7.00;;;;;;;;;;5041439;28;20036;-86
2022/05/20 12:46:46;;;;;;;7.60;5.72;;;;;;;;;;5058358;28;20503;-86
2022/05/20 12:49:12;;;;;;;;;;;;;;;;;;5043265;28;20079;-85
2022/05/20 12:51:42;;;;;;;7.32;6.07;;;;;;;;;;5041627;28;20295;-86
2022/05/20 12:54:14;;;;;;;9.80;7.95;;;;;;;;;;5042321;28;20040;-87
2022/05/20 12:56:40;;;;;;;8.98;8.07;;;;;;;;;;5040952;28;20037;-85
2022/05/20 12:59:18;;;;;;;9.00;8.13;;;;;;;;;;5040839;28;20055;-89
2022/05/20 13:01:47;;;;;;;8.60;7.80;;;;;;;;;;5040798;28;20480;-88
2022/05/20 13:04:15;;;;;;;8.52;7.40;;;;;;;;;;5040140;28;20441;-89
2022/05/20 13:06:43;;;;;;;11.25;6.32;;;;;;;;;;5040765;28;20044;-87
2022/05/20 13:09:09;;;;;;;8.90;8.00;;;;;;;;;;5039742;28;20381;-87
2022/05/20 13:11:43;;;;;;;8.05;7.22;;;;;;;;;;5039781;28;20040;-89
2022/05/20 13:14:13;;;;;;;8.15;7.45;;;;;;;;;;5040323;28;20048;-87
2022/05/20 13:16:40;;;;;;;7.45;6.75;;;;;;;;;;5039984;28;20396;-87
2022/05/20 13:19:12;;;;;;;8.68;6.05;;;;;;;;;;5039866;28;20037;-86
2022/05/20 13:21:42;;;;;;;7.65;6.93;;;;;;;;;;5040235;28;20049;-89
2022/05/20 13:24:16;;;;;;;7.85;4.60;;;;;;;;;;5040032;28;20127;-90
2022/05/20 13:26:42;;;;;;;5.85;4.57;;;;;;;;;;5039875;28;20032;-87
2022/05/20 13:29:16;;;;;;;6.72;5.00;;;;;;;;;;5056040;28;20110;-86
2022/05/20 13:31:42;;;;;;;8.88;7.10;;;;;;;;;;5039553;28;20451;-89
2022/05/20 13:34:09;;;;;;;7.78;6.32;;;;;;;;;;5056134;28;20075;-88
2022/05/20 13:36:38;;;;;;;7.50;6.03;;;;;;;;;;5039474;28;20091;-86
2022/05/20 13:39:04;;;;;;;4.35;3.83;;;;;;;;;;5040511;28;20040;-85
2022/05/20 13:41:32;;;;;;;6.68;5.88;;;;;;;;;;5039499;28;20040;-91
2022/05/20 13:44:01;;;;;;;6.72;5.93;;;;;;;;;;5039659;28;20048;-87
2022/05/20 13:49:15;;;;;;;4.50;4.10;;;;;;;;;;5056166;28;20040;-88
2022/05/20 13:51:52;;;;;;;4.93;4.03;;;;;;;;;;5039846;28;20082;-90
2022/05/20 13:54:28;;;;;;;4.82;4.28;;;;;;;;;;5039340;28;20052;-89
2022/05/20 13:56:55;;;;;;;4.43;4.03;;;;;;;;;;5039819;28;20063;-87
2022/05/20 13:59:21;;;;;;;4.00;3.35;;;;;;;;;;5039997;28;20086;-88
2022/05/20 14:01:56;;;;;;;5.28;4.78;;;;;;;;;;5039445;28;20044;-88
2022/05/20 14:04:35;;;;;;;7.85;4.20;;;;;;;;;;5041266;28;20108;-88
2022/05/20 14:07:06;;;;;;;6.95;4.82;;;;;;;;;;5039088;28;20049;-88
2022/05/20 14:09:32;;;;;;;7.68;4.75;;;;;;;;;;5039420;28;20060;-87
2022/05/20 14:11:58;;;;;;;5.07;4.20;;;;;;;;;;5057060;28;20048;-88
2022/05/20 14:14:29;;;;;;;5.45;4.85;;;;;;;;;;5039514;28;20075;-89
2022/05/20 14:16:58;;;;;;;7.15;4.90;;;;;;;;;;5039985;28;20032;-89
2022/05/20 14:19:29;;;;;;;8.45;6.25;;;;;;;;;;5038622;28;20043;-87
2022/05/20 14:21:59;;;;;;;8.95;5.15;;;;;;;;;;5038516;28;20040;-88
2022/05/20 14:24:27;;;;;;;7.68;5.38;;;;;;;;;;5038705;28;20075;-89
2022/05/20 14:26:54;;;;;;;10.40;5.97;;;;;;;;;;5055472;28;20040;-87
2022/05/20 14:29:37;;;;;;;6.95;5.60;;;;;;;;;;5038749;28;20075;-88
2022/05/20 14:32:08;;;;;;;9.35;5.75;;;;;;;;;;5057604;28;20236;-90
2022/05/20 14:34:34;;;;;;;;;;;;;;;;;;5039535;28;20078;-88
2022/05/20 14:37:08;;;;;;;11.85;6.32;;;;;;;;;;5037882;28;20435;-87
2022/05/20 14:39:34;;;;;;;9.38;6.28;;;;;;;;;;5037812;28;20047;-84
2022/05/20 14:42:00;;;;;;;9.45;6.43;;;;;;;;;;5037961;28;20040;-80
2022/05/20 14:44:26;;;;;;;11.93;6.90;;;;;;;;;;5037610;28;20067;-78
2022/05/20 14:47:15;;;;;;;8.75;5.80;;;;;;;;;;5037457;28;20032;-77
2022/05/20 14:49:44;;;;;;;9.55;6.68;;;;;;;;;;5037338;28;20356;-78
2022/05/20 14:52:19;;;;;;;12.32;7.78;;;;;;;;;;5054457;28;20496;-80
2022/05/20 14:54:48;;;;;;;12.27;7.28;;;;;;;;;;5054045;28;20102;-79
2022/05/20 14:57:23;;;;;;;14.52;8.38;;;;;;;;;;5054287;28;20075;-79
2022/05/20 15:00:08;;;;;;;10.50;7.28;;;;;;;;;;5054020;28;20051;-81
2022/05/20 15:02:35;;;;;;;11.40;7.18;;;;;;;;;;5053971;28;20040;-81
2022/05/20 15:05:01;;;;;;;11.07;7.22;;;;;;;;;;5053717;28;20053;-79
2022/05/20 15:07:28;;;;;;;10.38;7.43;;;;;;;;;;5053823;28;20036;-80
2022/05/20 15:09:54;;;;;;;15.45;7.80;;;;;;;;;;5036987;28;20049;-81
2022/05/20 15:12:23;;;;;;;11.38;7.43;;;;;;;;;;5037441;28;20040;-85
2022/05/20 15:14:49;;;;;;;11.75;7.78;;;;;;;;;;5037530;28;20425;-83
2022/05/20 15:17:19;;;;;;;11.60;7.35;;;;;;;;;;5053896;28;20059;-83
2022/05/20 15:19:45;;;;;;;10.75;7.15;;;;;;;;;;5037286;28;20052;-86
2022/05/20 15:22:15;;;;;;;12.25;7.40;;;;;;;;;;5037475;28;20056;-83
2022/05/20 15:24:44;;;;;;;13.50;7.53;;;;;;;;;;5037746;28;20048;-85
2022/05/20 15:27:21;;;;;;;12.93;7.28;;;;;;;;;;5038212;28;20085;-84
2022/05/20 15:29:47;;;;;;;12.45;7.55;;;;;;;;;;5037858;28;20511;-85
2022/05/20 15:35:00;;;;;;;13.05;7.80;;;;;;;;;;5054057;28;20044;-87
2022/05/20 15:37:29;;;;;;;15.50;7.95;;;;;;;;;;5055229;28;20044;-85